Time;durP1;ratioP1;P1;durP2;ratioP2;P2;SDS_P1;SDS_P2;PMS_P1;PMS_P2;Temp;Humidity;BMP_temperature;BMP_pressure;BME280_temperature;BME280_humidity;BME280_pressure;Samples;Min_cycle;Max_cycle;Signal;HPM_P1;HPM_P2
2022/08/26 00:01:58;;;;;;;4.45;1.90;;;;;;;;;;5071228;28;20472;-75
2022/08/26 00:04:24;;;;;;;5.60;2.70;;;;;;;;;;5071482;28;20020;-76
2022/08/26 00:06:50;;;;;;;4.38;2.05;;;;;;;;;;5072676;28;20028;-75
2022/08/26 00:09:15;;;;;;;4.25;2.45;;;;;;;;;;5073075;28;20025;-79
2022/08/26 00:11:41;;;;;;;5.40;2.22;;;;;;;;;;5072560;28;20029;-75
2022/08/26 00:14:06;;;;;;;5.72;2.05;;;;;;;;;;5072581;28;20052;-76
2022/08/26 00:16:32;;;;;;;4.03;2.03;;;;;;;;;;5071949;28;20031;-79
2022/08/26 00:18:57;;;;;;;4.00;1.75;;;;;;;;;;5072429;28;20036;-81
2022/08/26 00:21:23;;;;;;;5.28;2.38;;;;;;;;;;5072284;28;20040;-76
2022/08/26 00:23:49;;;;;;;6.30;2.00;;;;;;;;;;5071361;28;20021;-76
2022/08/26 00:26:14;;;;;;;4.57;1.83;;;;;;;;;;5072340;28;20028;-75
2022/08/26 00:28:40;;;;;;;4.03;1.80;;;;;;;;;;5071048;28;20444;-80
2022/08/26 00:31:05;;;;;;;6.65;2.17;;;;;;;;;;5072186;28;20130;-75
2022/08/26 00:33:31;;;;;;;5.05;1.60;;;;;;;;;;5071454;28;20021;-80
2022/08/26 00:35:57;;;;;;;4.35;1.83;;;;;;;;;;5070639;28;20053;-81
2022/08/26 00:38:23;;;;;;;5.03;1.90;;;;;;;;;;5072500;28;20544;-75
2022/08/26 00:40:52;;;;;;;4.68;1.80;;;;;;;;;;5072222;28;20392;-80
2022/08/26 00:43:18;;;;;;;3.90;1.45;;;;;;;;;;5071287;28;20393;-80
2022/08/26 00:45:48;;;;;;;4.38;1.73;;;;;;;;;;5072398;28;20032;-80
2022/08/26 00:48:16;;;;;;;5.78;2.67;;;;;;;;;;5071257;28;20388;-75
2022/08/26 00:50:48;;;;;;;5.57;1.70;;;;;;;;;;5070933;28;20020;-75
2022/08/26 00:53:20;;;;;;;5.57;1.90;;;;;;;;;;5072493;28;20036;-75
2022/08/26 00:55:58;;;;;;;4.13;1.60;;;;;;;;;;5070898;28;20377;-75
2022/08/26 00:58:30;;;;;;;4.70;1.98;;;;;;;;;;5071019;28;20377;-76
2022/08/26 01:00:55;;;;;;;5.78;1.70;;;;;;;;;;5071970;28;20028;-81
2022/08/26 01:03:26;;;;;;;5.00;1.90;;;;;;;;;;5072396;28;20074;-80
2022/08/26 01:05:56;;;;;;;5.88;1.70;;;;;;;;;;5075933;28;20103;-80
2022/08/26 01:08:23;;;;;;;4.63;1.80;;;;;;;;;;5076297;28;20021;-79
2022/08/26 01:10:49;;;;;;;5.93;1.88;;;;;;;;;;5075554;28;20499;-80
2022/08/26 01:13:16;;;;;;;4.28;1.95;;;;;;;;;;5073886;28;20031;-80
2022/08/26 01:15:46;;;;;;;4.20;1.70;;;;;;;;;;5075430;28;20023;-75
2022/08/26 01:18:12;;;;;;;4.80;2.00;;;;;;;;;;5066214;28;20024;-75
2022/08/26 01:20:52;;;;;;;6.97;1.90;;;;;;;;;;5075499;28;20499;-81
2022/08/26 01:23:18;;;;;;;3.95;1.70;;;;;;;;;;5074344;28;20031;-75
2022/08/26 01:25:51;;;;;;;4.65;1.92;;;;;;;;;;5074440;28;20032;-80
2022/08/26 01:28:21;;;;;;;5.20;1.80;;;;;;;;;;5061118;28;20111;-80
2022/08/26 01:30:50;;;;;;;3.83;2.10;;;;;;;;;;5075385;28;20028;-74
2022/08/26 01:33:22;;;;;;;5.47;1.80;;;;;;;;;;5073889;28;20501;-76
2022/08/26 01:35:48;;;;;;;4.53;1.55;;;;;;;;;;5073592;28;20076;-75
2022/08/26 01:38:14;;;;;;;4.05;1.70;;;;;;;;;;5075568;28;20083;-75
2022/08/26 01:40:42;;;;;;;3.85;1.55;;;;;;;;;;5075223;28;20457;-74
2022/08/26 01:43:13;;;;;;;7.97;2.00;;;;;;;;;;5073788;28;20115;-75
2022/08/26 01:45:41;;;;;;;4.80;1.85;;;;;;;;;;5074089;28;20024;-80
2022/08/26 01:48:11;;;;;;;4.43;1.50;;;;;;;;;;5057461;28;20612;-80
2022/08/26 01:50:38;;;;;;;7.25;2.03;;;;;;;;;;5073864;28;20025;-75
2022/08/26 01:53:07;;;;;;;4.70;1.40;;;;;;;;;;5075128;28;20031;-75
2022/08/26 01:55:35;;;;;;;5.25;1.73;;;;;;;;;;5074704;28;20024;-80
2022/08/26 01:58:04;;;;;;;3.13;1.50;;;;;;;;;;5074697;28;20384;-80
2022/08/26 02:00:30;;;;;;;3.85;1.33;;;;;;;;;;5073677;28;20021;-79
2022/08/26 02:05:40;;;;;;;4.88;1.30;;;;;;;;;;5074965;28;20381;-81
2022/08/26 02:08:06;;;;;;;3.15;1.40;;;;;;;;;;5074919;28;20028;-75
2022/08/26 02:10:32;;;;;;;3.67;1.25;;;;;;;;;;5073489;28;20484;-80
2022/08/26 02:12:57;;;;;;;5.30;1.75;;;;;;;;;;5073134;28;20472;-80
2022/08/26 02:15:23;;;;;;;5.93;1.55;;;;;;;;;;5073579;28;20021;-75
2022/08/26 02:17:50;;;;;;;6.78;1.67;;;;;;;;;;5063151;28;20501;-75
2022/08/26 02:20:18;;;;;;;4.82;1.45;;;;;;;;;;5073121;28;20027;-76
2022/08/26 02:22:44;;;;;;;5.75;1.20;;;;;;;;;;5064534;28;20036;-76
2022/08/26 02:25:15;;;;;;;4.75;1.58;;;;;;;;;;5073263;28;20491;-80
2022/08/26 02:27:40;;;;;;;5.50;1.85;;;;;;;;;;5073071;28;20435;-75
2022/08/26 02:30:16;;;;;;;3.15;1.33;;;;;;;;;;5073170;28;20036;-80
2022/08/26 02:32:41;;;;;;;2.97;1.15;;;;;;;;;;5085618;28;20017;-74
2022/08/26 02:35:10;;;;;;;3.63;1.45;;;;;;;;;;5068033;28;20484;-80
2022/08/26 02:37:35;;;;;;;6.40;1.50;;;;;;;;;;5073873;28;20400;-74
2022/08/26 02:40:01;;;;;;;4.35;1.30;;;;;;;;;;5074490;28;20021;-81
2022/08/26 02:42:27;;;;;;;5.90;1.55;;;;;;;;;;5072816;28;20032;-75
2022/08/26 02:44:52;;;;;;;3.97;1.30;;;;;;;;;;5074167;28;20107;-75
2022/08/26 02:47:18;;;;;;;5.13;1.30;;;;;;;;;;5074118;28;20029;-80
2022/08/26 02:49:44;;;;;;;4.68;1.52;;;;;;;;;;5072488;28;20012;-80
2022/08/26 02:52:11;;;;;;;3.92;1.25;;;;;;;;;;5072512;28;20032;-74
2022/08/26 02:54:36;;;;;;;2.92;1.15;;;;;;;;;;5073793;28;20111;-80
2022/08/26 02:57:02;;;;;;;4.78;1.20;;;;;;;;;;5072123;28;20120;-80
2022/08/26 02:59:28;;;;;;;5.22;1.17;;;;;;;;;;5073927;28;20038;-80
2022/08/26 03:01:53;;;;;;;5.65;1.10;;;;;;;;;;5072256;28;20032;-75
2022/08/26 03:04:20;;;;;;;6.65;1.13;;;;;;;;;;5072145;28;20020;-75
2022/08/26 03:06:49;;;;;;;4.47;1.10;;;;;;;;;;5073757;28;20437;-81
2022/08/26 03:09:15;;;;;;;2.70;1.10;;;;;;;;;;5072172;28;20040;-74
2022/08/26 03:11:40;;;;;;;4.50;1.20;;;;;;;;;;5070797;28;20107;-75
2022/08/26 03:14:06;;;;;;;4.97;1.13;;;;;;;;;;5072254;28;20119;-76
2022/08/26 03:16:36;;;;;;;3.83;1.00;;;;;;;;;;5071884;28;20017;-80
2022/08/26 03:19:04;;;;;;;5.88;1.20;;;;;;;;;;5067962;28;20029;-75
2022/08/26 03:21:30;;;;;;;2.72;0.95;;;;;;;;;;5071598;28;20083;-76
2022/08/26 03:23:55;;;;;;;2.75;1.10;;;;;;;;;;5071948;28;20052;-75
2022/08/26 03:26:21;;;;;;;2.58;1.13;;;;;;;;;;5072826;28;20032;-80
2022/08/26 03:31:31;;;;;;;2.45;1.00;;;;;;;;;;5073356;28;20082;-80
2022/08/26 03:33:58;;;;;;;2.85;1.10;;;;;;;;;;5072617;28;20468;-80
2022/08/26 03:36:23;;;;;;;3.40;0.90;;;;;;;;;;5071727;28;20072;-75
2022/08/26 03:38:49;;;;;;;5.55;0.98;;;;;;;;;;5071864;28;20480;-80
2022/08/26 03:41:16;;;;;;;3.08;1.00;;;;;;;;;;5071759;28;20400;-77
2022/08/26 03:43:42;;;;;;;3.67;0.85;;;;;;;;;;5073062;28;20043;-80
2022/08/26 03:46:09;;;;;;;2.47;0.80;;;;;;;;;;5055043;28;20473;-75
2022/08/26 03:48:34;;;;;;;4.55;1.10;;;;;;;;;;5072998;28;20033;-80
2022/08/26 03:51:01;;;;;;;3.92;0.82;;;;;;;;;;5072791;28;20035;-75
2022/08/26 03:53:26;;;;;;;4.53;1.00;;;;;;;;;;5071982;28;20119;-81
2022/08/26 03:55:52;;;;;;;1.45;0.75;;;;;;;;;;5072758;28;20108;-80
2022/08/26 03:58:19;;;;;;;4.97;0.90;;;;;;;;;;5071199;28;20051;-75
2022/08/26 04:00:44;;;;;;;4.63;0.90;;;;;;;;;;5072823;28;20024;-80
2022/08/26 04:03:10;;;;;;;5.65;1.10;;;;;;;;;;5071565;28;20028;-81
2022/08/26 04:05:36;;;;;;;3.42;1.10;;;;;;;;;;5071145;28;20016;-76
2022/08/26 04:08:04;;;;;;;2.25;0.70;;;;;;;;;;5071470;28;20059;-74
2022/08/26 04:10:31;;;;;;;1.75;0.60;;;;;;;;;;5072591;28;20075;-81
2022/08/26 04:12:57;;;;;;;2.45;0.70;;;;;;;;;;5071370;28;20052;-76
2022/08/26 04:15:23;;;;;;;5.13;0.98;;;;;;;;;;5072448;28;20028;-75
2022/08/26 04:17:48;;;;;;;3.25;0.90;;;;;;;;;;5071680;28;20427;-76
2022/08/26 04:20:16;;;;;;;2.38;0.68;;;;;;;;;;5071283;28;20024;-79
2022/08/26 04:22:43;;;;;;;2.92;0.60;;;;;;;;;;5052769;28;20024;-80
2022/08/26 04:25:08;;;;;;;3.28;1.10;;;;;;;;;;5072481;28;20035;-75
2022/08/26 04:27:34;;;;;;;2.80;0.73;;;;;;;;;;5070964;28;20416;-76
2022/08/26 04:29:59;;;;;;;3.78;0.77;;;;;;;;;;5070942;28;20035;-75
2022/08/26 04:32:25;;;;;;;5.10;1.10;;;;;;;;;;5068831;28;20027;-75
2022/08/26 04:34:52;;;;;;;4.78;0.80;;;;;;;;;;5070822;28;20040;-80
2022/08/26 04:37:17;;;;;;;5.38;0.88;;;;;;;;;;5086991;28;20502;-81
2022/08/26 04:39:43;;;;;;;2.20;0.65;;;;;;;;;;5075188;28;20119;-75
2022/08/26 04:42:08;;;;;;;2.67;0.90;;;;;;;;;;5076141;28;20104;-76
2022/08/26 04:44:35;;;;;;;3.67;0.70;;;;;;;;;;5076324;28;20077;-75
2022/08/26 04:47:01;;;;;;;2.65;0.60;;;;;;;;;;5075156;28;20039;-75
2022/08/26 04:49:26;;;;;;;3.60;0.63;;;;;;;;;;5075015;28;20477;-75
2022/08/26 04:51:52;;;;;;;2.92;0.80;;;;;;;;;;5075813;28;20081;-79
2022/08/26 04:54:18;;;;;;;1.90;0.70;;;;;;;;;;5075108;28;20032;-75
2022/08/26 04:56:46;;;;;;;3.90;1.23;;;;;;;;;;5076009;28;20392;-80
2022/08/26 04:59:14;;;;;;;3.55;0.80;;;;;;;;;;5074705;28;20124;-74
2022/08/26 05:01:47;;;;;;;2.30;0.80;;;;;;;;;;5074617;28;20017;-75
2022/08/26 05:04:13;;;;;;;1.80;0.60;;;;;;;;;;5057999;28;20063;-74
2022/08/26 05:06:38;;;;;;;3.28;0.70;;;;;;;;;;5074539;28;20056;-76
2022/08/26 05:09:04;;;;;;;3.92;0.80;;;;;;;;;;5074644;28;20020;-80
2022/08/26 05:11:30;;;;;;;2.50;0.63;;;;;;;;;;5075593;28;20328;-76
2022/08/26 05:13:55;;;;;;;2.67;0.93;;;;;;;;;;5074707;28;20392;-75
2022/08/26 05:16:21;;;;;;;3.08;0.80;;;;;;;;;;5074455;28;20036;-80
2022/08/26 05:18:46;;;;;;;2.83;0.65;;;;;;;;;;5074106;28;20025;-75
2022/08/26 05:21:21;;;;;;;1.30;0.52;;;;;;;;;;5075438;28;20499;-75
2022/08/26 05:23:50;;;;;;;5.07;0.70;;;;;;;;;;5074286;28;20151;-81
2022/08/26 05:26:16;;;;;;;3.58;0.70;;;;;;;;;;5064530;28;20024;-76
2022/08/26 05:28:41;;;;;;;2.53;0.70;;;;;;;;;;5074089;28;20021;-80
2022/08/26 05:31:16;;;;;;;1.75;0.50;;;;;;;;;;5074296;28;20028;-80
2022/08/26 05:33:42;;;;;;;2.35;0.60;;;;;;;;;;5075179;28;20025;-81
2022/08/26 05:36:11;;;;;;;1.73;0.65;;;;;;;;;;5075494;28;20051;-80
2022/08/26 05:38:36;;;;;;;3.35;0.70;;;;;;;;;;5057676;28;20032;-74
2022/08/26 05:41:02;;;;;;;2.88;0.70;;;;;;;;;;5075296;28;20051;-81
2022/08/26 05:43:28;;;;;;;2.83;0.80;;;;;;;;;;5074003;28;20119;-80
2022/08/26 05:45:53;;;;;;;3.22;0.70;;;;;;;;;;5075279;28;20020;-80
2022/08/26 05:48:19;;;;;;;3.65;1.00;;;;;;;;;;5073778;28;20013;-81
2022/08/26 05:50:51;;;;;;;2.20;0.90;;;;;;;;;;5073300;28;20048;-77
2022/08/26 05:53:19;;;;;;;3.13;0.70;;;;;;;;;;5064105;28;20124;-75
2022/08/26 05:55:51;;;;;;;1.35;0.60;;;;;;;;;;5073783;28;20460;-79
2022/08/26 05:58:19;;;;;;;2.67;0.80;;;;;;;;;;5074647;28;20028;-75
2022/08/26 06:00:54;;;;;;;3.63;0.70;;;;;;;;;;5074768;28;20396;-75
2022/08/26 06:03:20;;;;;;;3.28;0.80;;;;;;;;;;5073630;28;20435;-80
2022/08/26 06:05:45;;;;;;;3.17;0.68;;;;;;;;;;5073454;28;20056;-75
2022/08/26 06:08:12;;;;;;;2.35;0.50;;;;;;;;;;5074984;28;20381;-76
2022/08/26 06:10:51;;;;;;;3.88;0.88;;;;;;;;;;5074832;28;20056;-80
2022/08/26 06:13:19;;;;;;;1.95;0.70;;;;;;;;;;5056906;28;20059;-81
2022/08/26 06:15:49;;;;;;;3.50;0.98;;;;;;;;;;5073302;28;20523;-79
2022/08/26 06:18:20;;;;;;;3.35;0.80;;;;;;;;;;5055196;28;20504;-75
2022/08/26 06:20:47;;;;;;;3.83;1.10;;;;;;;;;;5072944;28;20028;-81
2022/08/26 06:26:00;;;;;;;4.32;0.88;;;;;;;;;;5066074;28;20063;-75
2022/08/26 06:28:26;;;;;;;2.58;0.63;;;;;;;;;;5074212;28;20032;-75
2022/08/26 06:30:53;;;;;;;3.22;0.73;;;;;;;;;;5074195;28;20864;-81
2022/08/26 06:33:20;;;;;;;2.00;0.70;;;;;;;;;;5073948;28;20457;-75
2022/08/26 06:35:45;;;;;;;3.53;0.70;;;;;;;;;;5073941;28;20072;-81
2022/08/26 06:38:12;;;;;;;2.50;0.77;;;;;;;;;;5074346;28;20066;-76
2022/08/26 06:40:47;;;;;;;3.17;0.85;;;;;;;;;;5074109;28;20426;-75
2022/08/26 06:43:13;;;;;;;2.83;0.70;;;;;;;;;;5073171;28;20024;-81
2022/08/26 06:45:39;;;;;;;3.05;0.60;;;;;;;;;;5072610;28;20401;-80
2022/08/26 06:48:05;;;;;;;3.45;1.02;;;;;;;;;;5073060;28;20012;-74
2022/08/26 06:50:32;;;;;;;3.47;0.60;;;;;;;;;;5073843;28;20027;-74
2022/08/26 06:52:58;;;;;;;2.63;0.63;;;;;;;;;;5074268;28;20077;-80
2022/08/26 06:55:23;;;;;;;2.95;0.77;;;;;;;;;;5055526;28;20473;-80
2022/08/26 06:57:49;;;;;;;3.10;0.73;;;;;;;;;;5072870;28;20028;-81
2022/08/26 07:00:15;;;;;;;2.63;0.70;;;;;;;;;;5073377;28;20097;-75
2022/08/26 07:02:40;;;;;;;2.80;0.98;;;;;;;;;;5070643;28;20078;-80
2022/08/26 07:05:07;;;;;;;3.58;0.60;;;;;;;;;;5072461;28;20479;-80
2022/08/26 07:07:32;;;;;;;3.53;0.60;;;;;;;;;;5072212;28;20513;-75
2022/08/26 07:09:58;;;;;;;1.55;0.52;;;;;;;;;;5068269;28;20036;-80
2022/08/26 07:12:24;;;;;;;2.55;0.80;;;;;;;;;;5071931;28;20366;-76
2022/08/26 07:14:50;;;;;;;4.05;0.73;;;;;;;;;;5072396;28;20044;-80
2022/08/26 07:17:16;;;;;;;5.90;0.88;;;;;;;;;;5072058;28;20476;-81
2022/08/26 07:19:41;;;;;;;2.38;0.50;;;;;;;;;;5072121;28;20124;-81
2022/08/26 07:22:07;;;;;;;3.25;0.60;;;;;;;;;;5071913;28;20034;-80
2022/08/26 07:24:34;;;;;;;2.63;0.60;;;;;;;;;;5071543;28;20024;-81
2022/08/26 07:27:03;;;;;;;2.83;0.70;;;;;;;;;;5071845;28;20020;-75
2022/08/26 07:29:29;;;;;;;2.20;0.50;;;;;;;;;;5073278;28;20077;-80
2022/08/26 07:31:54;;;;;;;1.85;0.50;;;;;;;;;;5071605;28;20467;-80
2022/08/26 07:34:21;;;;;;;5.50;0.77;;;;;;;;;;5071306;28;20055;-79
2022/08/26 07:36:47;;;;;;;3.15;0.63;;;;;;;;;;5071477;28;20060;-75
2022/08/26 07:39:14;;;;;;;4.10;0.52;;;;;;;;;;5073299;28;20033;-80
2022/08/26 07:41:39;;;;;;;5.20;0.80;;;;;;;;;;5054942;28;20033;-76
2022/08/26 07:44:04;;;;;;;2.53;0.60;;;;;;;;;;5072098;28;20516;-81
2022/08/26 07:46:30;;;;;;;3.85;0.80;;;;;;;;;;5072684;28;20024;-81
2022/08/26 07:48:56;;;;;;;2.63;0.50;;;;;;;;;;5071967;28;20392;-80
2022/08/26 07:51:22;;;;;;;2.97;0.90;;;;;;;;;;5071244;28;20460;-75
2022/08/26 07:53:48;;;;;;;2.17;0.70;;;;;;;;;;5071459;28;20115;-75
2022/08/26 07:56:14;;;;;;;2.78;0.80;;;;;;;;;;5072648;28;20396;-74
2022/08/26 07:58:40;;;;;;;3.10;0.77;;;;;;;;;;5072748;28;20028;-80
2022/08/26 08:01:07;;;;;;;3.97;0.80;;;;;;;;;;5071171;28;20427;-80
2022/08/26 08:03:33;;;;;;;2.20;0.60;;;;;;;;;;5054528;28;20099;-81
2022/08/26 08:05:58;;;;;;;5.10;0.95;;;;;;;;;;5071286;28;20032;-74
2022/08/26 08:08:24;;;;;;;2.58;0.65;;;;;;;;;;5072916;28;20020;-75
2022/08/26 08:10:52;;;;;;;4.40;0.63;;;;;;;;;;5071357;28;20036;-81
2022/08/26 08:13:18;;;;;;;2.42;0.50;;;;;;;;;;5071195;28;20070;-80
2022/08/26 08:15:43;;;;;;;2.97;0.63;;;;;;;;;;5071128;28;20036;-81
2022/08/26 08:18:09;;;;;;;2.63;0.57;;;;;;;;;;5072738;28;20029;-81
2022/08/26 08:20:34;;;;;;;2.33;0.60;;;;;;;;;;5071242;28;20032;-81
2022/08/26 08:23:03;;;;;;;1.27;0.50;;;;;;;;;;5072661;28;20166;-75
2022/08/26 08:25:29;;;;;;;3.53;0.82;;;;;;;;;;5071261;28;20036;-76
2022/08/26 08:27:54;;;;;;;2.67;0.60;;;;;;;;;;5071219;28;20016;-75
2022/08/26 08:30:21;;;;;;;3.55;0.60;;;;;;;;;;5072398;28;20111;-75
2022/08/26 08:32:46;;;;;;;3.45;0.60;;;;;;;;;;5070409;28;20484;-75
2022/08/26 08:35:14;;;;;;;3.13;0.70;;;;;;;;;;5072095;28;20079;-80
2022/08/26 08:37:40;;;;;;;4.70;1.17;;;;;;;;;;5071308;28;20113;-81
2022/08/26 08:40:08;;;;;;;3.17;0.60;;;;;;;;;;5070855;28;20028;-80
2022/08/26 08:42:50;;;;;;;2.40;0.80;;;;;;;;;;5072018;28;20033;-80
2022/08/26 08:45:33;;;;;;;3.53;0.70;;;;;;;;;;5071993;28;20085;-76
2022/08/26 08:48:10;;;;;;;2.67;0.45;;;;;;;;;;5071281;28;20055;-75
2022/08/26 08:50:46;;;;;;;3.13;0.65;;;;;;;;;;5070944;28;20020;-80
2022/08/26 08:53:22;;;;;;;2.05;0.70;;;;;;;;;;5072312;28;20020;-81
2022/08/26 08:56:22;;;;;;;3.63;0.90;;;;;;;;;;5070447;28;20032;-80
2022/08/26 08:59:12;;;;;;;3.97;0.60;;;;;;;;;;5071580;28;20126;-80
2022/08/26 09:02:15;;;;;;;4.63;0.85;;;;;;;;;;5057323;28;20043;-81
2022/08/26 09:05:18;;;;;;;3.13;0.70;;;;;;;;;;5072379;28;20020;-81
2022/08/26 09:08:00;;;;;;;2.05;0.47;;;;;;;;;;5070447;28;20048;-81
2022/08/26 09:10:31;;;;;;;2.72;0.40;;;;;;;;;;5071019;28;20024;-80
2022/08/26 09:12:59;;;;;;;4.88;0.70;;;;;;;;;;5069753;28;20028;-75
2022/08/26 09:15:50;;;;;;;3.53;0.60;;;;;;;;;;5071940;28;20036;-75
2022/08/26 09:18:25;;;;;;;4.63;0.77;;;;;;;;;;5064217;28;20057;-81
2022/08/26 09:20:57;;;;;;;4.53;0.63;;;;;;;;;;5070371;28;20029;-75
2022/08/26 09:23:23;;;;;;;2.60;0.60;;;;;;;;;;5070677;28;20032;-80
2022/08/26 09:25:57;;;;;;;2.22;0.70;;;;;;;;;;5074483;28;20388;-75
2022/08/26 09:28:26;;;;;;;2.95;0.80;;;;;;;;;;5075082;28;20048;-81
2022/08/26 09:31:10;;;;;;;3.58;0.90;;;;;;;;;;5075520;28;20476;-75
2022/08/26 09:33:36;;;;;;;3.63;0.63;;;;;;;;;;5074334;28;20032;-81
2022/08/26 09:36:17;;;;;;;3.95;0.70;;;;;;;;;;5075352;28;20512;-81
2022/08/26 09:38:43;;;;;;;4.43;0.60;;;;;;;;;;5057763;28;20036;-75
2022/08/26 09:41:38;;;;;;;4.65;0.60;;;;;;;;;;5074101;28;20024;-75
2022/08/26 09:44:12;;;;;;;3.88;0.50;;;;;;;;;;5052510;28;20385;-75
2022/08/26 09:46:45;;;;;;;7.55;0.68;;;;;;;;;;5075268;28;20028;-81
2022/08/26 09:49:37;;;;;;;3.60;0.70;;;;;;;;;;5070478;28;20528;-76
2022/08/26 09:52:35;;;;;;;3.08;0.60;;;;;;;;;;5058348;28;20041;-80
2022/08/26 09:55:14;;;;;;;3.50;0.60;;;;;;;;;;5043600;28;20076;-76
2022/08/26 09:57:47;;;;;;;1.70;0.52;;;;;;;;;;5070262;28;20023;-76
2022/08/26 10:00:27;;;;;;;3.67;0.68;;;;;;;;;;5062072;28;20120;-81
2022/08/26 10:02:53;;;;;;;2.42;0.57;;;;;;;;;;5074453;28;20024;-81
2022/08/26 10:05:28;;;;;;;1.73;0.35;;;;;;;;;;5073563;28;20021;-81
2022/08/26 10:07:55;;;;;;;3.22;0.50;;;;;;;;;;5073415;28;20029;-80
2022/08/26 10:10:30;;;;;;;3.80;0.70;;;;;;;;;;5073574;28;20039;-81
2022/08/26 10:13:11;;;;;;;2.97;0.57;;;;;;;;;;5073788;28;20025;-81
2022/08/26 10:16:00;;;;;;;3.55;0.77;;;;;;;;;;5063651;28;20111;-75
2022/08/26 10:18:31;;;;;;;4.00;0.68;;;;;;;;;;5065388;28;20086;-75
2022/08/26 10:21:02;;;;;;;3.58;0.60;;;;;;;;;;5064089;28;20032;-81
2022/08/26 10:23:31;;;;;;;3.70;0.60;;;;;;;;;;5073189;28;20111;-75
2022/08/26 10:26:04;;;;;;;4.43;0.60;;;;;;;;;;5073038;28;20031;-81
2022/08/26 10:28:39;;;;;;;1.77;0.80;;;;;;;;;;5074360;28;20028;-75
2022/08/26 10:31:25;;;;;;;3.03;0.50;;;;;;;;;;5074466;28;20028;-80
2022/08/26 10:33:53;;;;;;;2.92;0.77;;;;;;;;;;5074330;28;20021;-80
2022/08/26 10:39:13;;;;;;;4.93;1.05;;;;;;;;;;5074138;28;20397;-81
2022/08/26 10:41:42;;;;;;;2.50;0.55;;;;;;;;;;5072964;28;20040;-81
2022/08/26 10:44:12;;;;;;;4.72;0.65;;;;;;;;;;5074275;28;20032;-80
2022/08/26 10:46:43;;;;;;;3.25;0.65;;;;;;;;;;5072250;28;20028;-81
2022/08/26 10:49:13;;;;;;;1.98;0.40;;;;;;;;;;5072919;28;20025;-74
2022/08/26 10:51:51;;;;;;;4.57;0.73;;;;;;;;;;5072701;28;20024;-81
2022/08/26 10:54:31;;;;;;;2.33;0.70;;;;;;;;;;5067082;28;20031;-80
2022/08/26 10:57:07;;;;;;;2.90;0.60;;;;;;;;;;5072898;28;20028;-81
2022/08/26 11:03:23;;;;;;;5.35;0.70;;;;;;;;;;5062953;28;20035;-80
2022/08/26 11:06:21;;;;;;;1.98;0.65;;;;;;;;;;5069019;28;20195;-75
2022/08/26 11:08:54;;;;;;;1.70;0.70;;;;;;;;;;5072351;28;20032;-76
2022/08/26 11:11:38;;;;;;;1.38;0.40;;;;;;;;;;5071910;28;20074;-76
2022/08/26 11:14:31;;;;;;;3.42;0.57;;;;;;;;;;5072453;28;20031;-75
2022/08/26 11:17:00;;;;;;;2.58;0.60;;;;;;;;;;5065077;28;20528;-80
2022/08/26 11:19:28;;;;;;;2.38;0.50;;;;;;;;;;5073100;28;20028;-74
2022/08/26 11:22:04;;;;;;;1.25;0.40;;;;;;;;;;5073092;28;20421;-75
2022/08/26 11:24:41;;;;;;;3.30;0.77;;;;;;;;;;5073676;28;20024;-81
2022/08/26 11:27:25;;;;;;;2.90;0.60;;;;;;;;;;5072675;28;20028;-76
2022/08/26 11:30:01;;;;;;;4.32;0.80;;;;;;;;;;5073317;28;20081;-75
2022/08/26 11:32:33;;;;;;;3.28;0.70;;;;;;;;;;5067736;28;20028;-80
2022/08/26 11:35:02;;;;;;;2.08;0.43;;;;;;;;;;5071392;28;20040;-76
2022/08/26 11:37:35;;;;;;;1.80;0.63;;;;;;;;;;5073011;28;20021;-75
2022/08/26 11:40:03;;;;;;;1.55;0.47;;;;;;;;;;5072208;28;20534;-75
2022/08/26 11:42:39;;;;;;;4.85;0.70;;;;;;;;;;5071673;28;20012;-75
2022/08/26 11:45:45;;;;;;;73.30;3.53;;;;;;;;;;5073074;28;20499;-75
2022/08/26 11:48:18;;;;;;;3.83;0.65;;;;;;;;;;4988352;28;20038;-80
2022/08/26 11:51:10;;;;;;;4.22;0.52;;;;;;;;;;4991480;28;20384;-81
2022/08/26 11:53:38;;;;;;;1.05;0.40;;;;;;;;;;5030233;28;20036;-81
2022/08/26 11:56:09;;;;;;;4.20;0.73;;;;;;;;;;5072781;28;20554;-76
2022/08/26 11:58:40;;;;;;;2.17;0.50;;;;;;;;;;5072808;28;20024;-81
2022/08/26 12:01:07;;;;;;;2.60;0.75;;;;;;;;;;5071271;28;20120;-80
2022/08/26 12:03:35;;;;;;;1.77;0.70;;;;;;;;;;5072871;28;20035;-81
2022/08/26 12:06:02;;;;;;;3.22;0.50;;;;;;;;;;5071452;28;20024;-75
2022/08/26 12:08:29;;;;;;;2.13;0.50;;;;;;;;;;5071427;28;20017;-74
2022/08/26 12:11:08;;;;;;;2.35;0.57;;;;;;;;;;5072958;28;20461;-80
2022/08/26 12:13:37;;;;;;;3.63;0.73;;;;;;;;;;5072635;28;20107;-75
2022/08/26 12:16:04;;;;;;;5.15;0.80;;;;;;;;;;5072881;28;20047;-80
2022/08/26 12:18:32;;;;;;;4.32;0.77;;;;;;;;;;5064772;28;20503;-81
2022/08/26 12:21:00;;;;;;;2.58;0.55;;;;;;;;;;5071021;28;20064;-81
2022/08/26 12:23:38;;;;;;;3.42;0.50;;;;;;;;;;5072612;28;20021;-75
2022/08/26 12:26:09;;;;;;;1.63;0.40;;;;;;;;;;5070857;28;20115;-75
2022/08/26 12:28:42;;;;;;;3.75;0.57;;;;;;;;;;5071076;28;20477;-81
2022/08/26 12:31:08;;;;;;;1.92;0.45;;;;;;;;;;5071411;28;20497;-81
2022/08/26 12:33:35;;;;;;;5.32;0.63;;;;;;;;;;5072533;28;20040;-80
2022/08/26 12:36:03;;;;;;;3.33;0.60;;;;;;;;;;5071299;28;20047;-80
2022/08/26 12:38:29;;;;;;;1.80;0.60;;;;;;;;;;5070643;28;20024;-81
2022/08/26 12:40:55;;;;;;;2.05;0.50;;;;;;;;;;5071217;28;20029;-80
2022/08/26 12:43:43;;;;;;;3.15;0.60;;;;;;;;;;5072505;28;20056;-75
2022/08/26 12:46:15;;;;;;;2.72;0.60;;;;;;;;;;5070931;28;20028;-81
2022/08/26 12:48:42;;;;;;;0.82;0.50;;;;;;;;;;5072310;28;20095;-81
2022/08/26 12:51:19;;;;;;;2.17;0.50;;;;;;;;;;5072080;28;20024;-81
2022/08/26 12:53:44;;;;;;;2.63;1.00;;;;;;;;;;5072308;28;20558;-76
2022/08/26 12:56:26;;;;;;;2.65;0.30;;;;;;;;;;5072315;28;20108;-81
2022/08/26 12:59:07;;;;;;;2.45;0.50;;;;;;;;;;5072908;28;20029;-80
2022/08/26 13:01:43;;;;;;;2.00;0.40;;;;;;;;;;5075847;28;20025;-75
2022/08/26 13:04:33;;;;;;;1.50;0.40;;;;;;;;;;5074936;28;20032;-75
2022/08/26 13:07:31;;;;;;;2.10;0.55;;;;;;;;;;5072151;28;20515;-75
2022/08/26 13:09:58;;;;;;;2.38;0.38;;;;;;;;;;5053075;28;20036;-81
2022/08/26 13:12:39;;;;;;;3.53;0.73;;;;;;;;;;5074754;28;20028;-80
2022/08/26 13:15:05;;;;;;;2.17;0.55;;;;;;;;;;5060521;28;20032;-81
2022/08/26 13:17:31;;;;;;;2.08;0.50;;;;;;;;;;5074175;28;20388;-75
2022/08/26 13:19:58;;;;;;;3.58;0.60;;;;;;;;;;5075639;28;20439;-82
2022/08/26 13:22:24;;;;;;;4.15;1.27;;;;;;;;;;5074095;28;20481;-75
2022/08/26 13:24:55;;;;;;;1.70;0.40;;;;;;;;;;5074557;28;20041;-81
2022/08/26 13:27:23;;;;;;;1.25;0.50;;;;;;;;;;5075399;28;20484;-75
2022/08/26 13:29:50;;;;;;;1.67;0.57;;;;;;;;;;5075691;28;20071;-75
2022/08/26 13:32:16;;;;;;;3.00;0.60;;;;;;;;;;5075424;28;20032;-81
2022/08/26 13:34:45;;;;;;;5.93;0.70;;;;;;;;;;5075116;28;20027;-80
2022/08/26 13:37:10;;;;;;;2.05;0.65;;;;;;;;;;5074219;28;20119;-81
2022/08/26 13:39:36;;;;;;;2.22;0.70;;;;;;;;;;5075277;28;20104;-75
2022/08/26 13:42:02;;;;;;;3.90;0.70;;;;;;;;;;5073954;28;20052;-81
2022/08/26 13:44:28;;;;;;;2.42;0.60;;;;;;;;;;5075216;28;20549;-80
2022/08/26 13:46:53;;;;;;;3.17;0.60;;;;;;;;;;5074225;28;20028;-75
2022/08/26 13:49:21;;;;;;;4.05;0.70;;;;;;;;;;5075380;28;20021;-80
2022/08/26 13:51:46;;;;;;;2.97;0.60;;;;;;;;;;5073835;28;20446;-80
2022/08/26 13:54:11;;;;;;;1.92;0.43;;;;;;;;;;5075145;28;20028;-75
2022/08/26 13:56:37;;;;;;;3.58;0.90;;;;;;;;;;5073565;28;20031;-75
2022/08/26 13:59:02;;;;;;;2.15;0.60;;;;;;;;;;5075171;28;20108;-76
2022/08/26 14:01:29;;;;;;;3.92;0.75;;;;;;;;;;5073450;28;20032;-75
2022/08/26 14:03:55;;;;;;;1.88;0.57;;;;;;;;;;5075134;28;20378;-75
2022/08/26 14:06:20;;;;;;;1.30;0.57;;;;;;;;;;5073429;28;20035;-81
2022/08/26 14:08:46;;;;;;;4.35;0.70;;;;;;;;;;5075083;28;20469;-75
2022/08/26 14:11:12;;;;;;;5.97;0.90;;;;;;;;;;5073274;28;20036;-75
2022/08/26 14:13:38;;;;;;;2.55;0.52;;;;;;;;;;5074840;28;20115;-81
2022/08/26 14:16:10;;;;;;;4.30;0.82;;;;;;;;;;5073594;28;20494;-75
2022/08/26 14:18:39;;;;;;;1.95;0.70;;;;;;;;;;5073714;28;20174;-80
2022/08/26 14:21:05;;;;;;;4.90;0.75;;;;;;;;;;5073617;28;20389;-80
2022/08/26 14:23:31;;;;;;;1.63;0.80;;;;;;;;;;5073270;28;20047;-80
2022/08/26 14:25:57;;;;;;;3.40;0.80;;;;;;;;;;5073628;28;20024;-80
2022/08/26 14:28:22;;;;;;;2.40;0.60;;;;;;;;;;5074496;28;20020;-82
2022/08/26 14:30:54;;;;;;;4.65;0.90;;;;;;;;;;5074057;28;20034;-76
2022/08/26 14:33:24;;;;;;;3.08;0.85;;;;;;;;;;5054010;28;20120;-81
2022/08/26 14:35:50;;;;;;;2.28;0.60;;;;;;;;;;5073004;28;20119;-82
2022/08/26 14:38:16;;;;;;;3.15;0.65;;;;;;;;;;5072806;28;20067;-78
2022/08/26 14:40:43;;;;;;;3.92;1.35;;;;;;;;;;5074000;28;20028;-78
2022/08/26 14:43:10;;;;;;;3.28;0.65;;;;;;;;;;5072850;28;20550;-78
2022/08/26 14:45:39;;;;;;;3.08;0.80;;;;;;;;;;5072705;28;20025;-77
2022/08/26 14:48:04;;;;;;;2.55;0.52;;;;;;;;;;5067543;28;20384;-80
2022/08/26 14:50:30;;;;;;;4.05;0.85;;;;;;;;;;5073966;28;20020;-82
2022/08/26 14:55:41;;;;;;;1.40;0.50;;;;;;;;;;5073738;28;20548;-79
2022/08/26 14:58:08;;;;;;;2.80;1.10;;;;;;;;;;5072028;28;20472;-81
2022/08/26 15:00:34;;;;;;;1.70;0.50;;;;;;;;;;5068466;28;20032;-76
2022/08/26 15:02:59;;;;;;;1.55;0.70;;;;;;;;;;5072494;28;20035;-79
2022/08/26 15:05:25;;;;;;;2.90;0.80;;;;;;;;;;5073718;28;20023;-80
2022/08/26 15:07:50;;;;;;;2.88;0.90;;;;;;;;;;5072555;28;20029;-80
2022/08/26 15:10:16;;;;;;;2.38;0.93;;;;;;;;;;5072104;28;20020;-81
2022/08/26 15:12:42;;;;;;;1.95;0.80;;;;;;;;;;5072522;28;20016;-82
2022/08/26 15:15:09;;;;;;;2.08;0.80;;;;;;;;;;5072004;28;20533;-81